Hilo, HI

8:55 PM HST on December 25, 2014 (GMT -1000)
NOS_NWLON Hilo, Hilo Bay, Kuhio Bay, HI NWLON | Change Station
CLOSE
Current Station
Personal Weather Station
Location: Hilo, HI
Elevation: 0 ft
Nearby Weather Stations

Elev 0 ft 19.73 °N, 155.06 °W | Updated 5 days ago

Mostly Cloudy
Mostly Cloudy
70 °F
Feels Like 70 °F
N
6
Wind Variable Wind from NE
Gusts 8 mph

Today
High -- | Low -- °F
--% Chance of Precip.
Yesterday
High -- | Low -- °F
Precip. -- in
6:52 AM 5:48 PM
Waxing Crescent, 23% visible
Pressure 29.78 in
Visibility 10.0 miles
Clouds Mostly Cloudy 3000 ft
Overcast 4400 ft
Dew Point 64 °F
Humidity 79%
Rainfall -999.00 in
Snow Depth Not available.
UV 0 out of 12
Pollen Not available.
Air Quality Not available.
Flu Activity Not available.
METAR PHTO 260553Z 25004KT 10SM BKN030 OVC044 22/20 A2979 RMK AO2 RAE00 SLP085 P0000 60005 T02170200 10244 20217 51013 $

More Conditions Fewer Conditions

Pressure 29.78 in
Visibility 10.0 miles
Clouds Mostly Cloudy 3000 ft
Overcast 4400 ft
Dew Point 64 °F
Humidity 79%
Rainfall -999.00 in
Snow Depth Not available.
UV 0 out of 12
Pollen Not available.
Air Quality Not available.
Flu Activity Not available.
METAR PHTO 260553Z 25004KT 10SM BKN030 OVC044 22/20 A2979 RMK AO2 RAE00 SLP085 P0000 60005 T02170200 10244 20217 51013 $

More Conditions Fewer Conditions

10-Day Weather Forecast

Almanac

Astronomy

Dec. 25, 2014 Rise Set
Actual Time
Civil Twilight
Nautical Twilight
Astronomical Twilight
Moon
Length of Visible Light
Length of Day
Tomorrow will be .
, % of the Moon is Illuminated

Today's Extremes

State Highs State Lows

Community

WunderPhotos

Upload Photos

1,780,568 photos uploaded!

WunderBlogs® & News

Nearby

Air Quality

  Air Quality AQ Index Pollutant
Not available.

Snow Depth

Station Depth Elevation

Earthquake Activity

City Distance Mag. Time & Date
Minimum magnitude displayed is 2.5.

Coastal Water Temperatures

Place Temperature

Nearby Weather Stations